createdAt,value
2018-07-30T00:00:25.591Z,98910.87
2018-07-30T00:00:56.784Z,98907.50
2018-07-30T00:01:27.968Z,98911.66
2018-07-30T00:01:59.150Z,98908.08
2018-07-30T00:02:30.387Z,98915.25
2018-07-30T00:03:01.564Z,98908.03
2018-07-30T00:03:32.744Z,98914.70
2018-07-30T00:04:03.974Z,98915.33
2018-07-30T00:04:35.214Z,98916.66
2018-07-30T00:05:06.424Z,98921.32
2018-07-30T00:05:37.622Z,98921.32
2018-07-30T00:06:08.745Z,98915.43
2018-07-30T00:06:39.876Z,98909.95
2018-07-30T00:07:11.137Z,98922.77
2018-07-30T00:07:42.288Z,98915.83
2018-07-30T00:08:13.410Z,98919.63
2018-07-30T00:08:44.584Z,98914.66
2018-07-30T00:09:15.805Z,98913.23
2018-07-30T00:09:46.993Z,98915.63
2018-07-30T00:10:18.115Z,98917.32
2018-07-30T00:10:49.282Z,98912.34
2018-07-30T00:11:20.522Z,98915.68
2018-07-30T00:11:51.766Z,98908.46
2018-07-30T00:12:22.952Z,98913.72
2018-07-30T00:12:54.129Z,98917.06
2018-07-30T00:13:25.316Z,98910.75
2018-07-30T00:13:56.431Z,98906.75
2018-07-30T00:14:27.604Z,98907.80
2018-07-30T00:14:58.724Z,98908.83
2018-07-30T00:15:29.892Z,98911.02
2018-07-30T00:16:01.090Z,98906.88
2018-07-30T00:16:32.320Z,98905.89
2018-07-30T00:17:03.504Z,98911.90
2018-07-30T00:17:34.681Z,98900.47
2018-07-30T00:18:05.861Z,98906.56
2018-07-30T00:18:37.104Z,98909.66
2018-07-30T00:19:08.318Z,98911.66
2018-07-30T00:19:39.486Z,98905.98
2018-07-30T00:20:10.661Z,98909.66
2018-07-30T00:20:41.788Z,98905.78
2018-07-30T00:21:12.908Z,98911.31
2018-07-30T00:21:44.149Z,98907.97
2018-07-30T00:22:15.280Z,98905.43
2018-07-30T00:22:46.521Z,98910.77
2018-07-30T00:23:17.737Z,98910.09
2018-07-30T00:23:48.869Z,98913.23
2018-07-30T00:24:20.062Z,98910.02
2018-07-30T00:24:51.201Z,98903.70
2018-07-30T00:25:22.382Z,98904.55
2018-07-30T00:25:53.632Z,98905.23
2018-07-30T00:26:24.824Z,98908.75
2018-07-30T00:26:56.005Z,98905.23
2018-07-30T00:27:27.139Z,98899.49
2018-07-30T00:27:58.315Z,98897.89
2018-07-30T00:28:29.488Z,98901.03
2018-07-30T00:29:00.717Z,98901.89
2018-07-30T00:29:31.899Z,98897.53
2018-07-30T00:30:03.019Z,98902.36
2018-07-30T00:30:34.139Z,98905.54
2018-07-30T00:31:05.249Z,98872.18
2018-07-30T00:31:36.432Z,98898.56
2018-07-30T00:32:07.568Z,98894.44
2018-07-30T00:32:38.682Z,98897.50
2018-07-30T00:33:09.803Z,98898.52
2018-07-30T00:33:40.980Z,98901.39
2018-07-30T00:34:12.253Z,98896.13
2018-07-30T00:34:43.407Z,98893.66
2018-07-30T00:35:14.718Z,98890.28
2018-07-30T00:35:45.850Z,98892.12
2018-07-30T00:36:17.025Z,98895.11
2018-07-30T00:36:48.266Z,98890.28
2018-07-30T00:37:19.464Z,98887.97
2018-07-30T00:37:50.701Z,98895.86
2018-07-30T00:38:21.923Z,98884.44
2018-07-30T00:38:53.045Z,98890.83
2018-07-30T00:39:24.225Z,98887.46
2018-07-30T00:39:55.371Z,98885.03
2018-07-30T00:40:26.489Z,98882.71
2018-07-30T00:40:57.667Z,98880.70
2018-07-30T00:41:28.838Z,98881.69
2018-07-30T00:41:59.971Z,98887.02
2018-07-30T00:42:31.146Z,98888.36
2018-07-30T00:43:02.271Z,98880.70
2018-07-30T00:43:33.420Z,98883.02
2018-07-30T00:44:04.598Z,98875.30
2018-07-30T00:44:35.779Z,98880.00
2018-07-30T00:45:06.964Z,98882.16
2018-07-30T00:45:38.205Z,98877.96
2018-07-30T00:46:09.481Z,98880.00
2018-07-30T00:46:40.827Z,98871.30
2018-07-30T00:47:11.963Z,98879.02
2018-07-30T00:47:43.167Z,98869.48
2018-07-30T00:48:14.384Z,98873.17
2018-07-30T00:48:45.513Z,98874.31
2018-07-30T00:49:16.723Z,98873.96
2018-07-30T00:49:47.859Z,98871.61
2018-07-30T00:50:19.015Z,98871.88
2018-07-30T00:50:50.185Z,98871.25
2018-07-30T00:51:21.418Z,98872.58
2018-07-30T00:51:52.608Z,98875.77
2018-07-30T00:52:23.790Z,98869.72
2018-07-30T00:52:54.984Z,98879.45
2018-07-30T00:53:26.099Z,98878.82
2018-07-30T00:53:57.215Z,98882.31
2018-07-30T00:54:28.378Z,98877.14
2018-07-30T00:54:59.539Z,98875.65
2018-07-30T00:55:30.698Z,98883.50
2018-07-30T00:56:01.827Z,98879.02
2018-07-30T00:56:33.017Z,98871.64
2018-07-30T00:57:04.144Z,98883.02
2018-07-30T00:57:35.318Z,98884.83
2018-07-30T00:58:06.511Z,98872.30
2018-07-30T00:58:37.636Z,98880.00
2018-07-30T00:59:08.877Z,98879.49
2018-07-30T00:59:40.004Z,98874.97
2018-07-30T01:00:11.428Z,98885.97
2018-07-30T01:00:42.620Z,98879.45
2018-07-30T01:01:13.795Z,98884.23
2018-07-30T01:01:44.979Z,98885.88
2018-07-30T01:02:16.091Z,98883.34
2018-07-30T01:02:47.325Z,98880.34
2018-07-30T01:03:18.460Z,98886.86
2018-07-30T01:03:49.629Z,98874.62
2018-07-30T01:04:20.868Z,98886.51
2018-07-30T01:04:52.044Z,98885.53
2018-07-30T01:05:23.165Z,98892.20
2018-07-30T01:05:55.144Z,98880.67
2018-07-30T01:06:26.276Z,98891.02
2018-07-30T01:06:57.450Z,98884.83
2018-07-30T01:07:28.581Z,98884.34
2018-07-30T01:07:59.710Z,98888.83
2018-07-30T01:08:30.888Z,98887.84
2018-07-30T01:09:02.008Z,98889.53
2018-07-30T01:09:33.133Z,98883.84
2018-07-30T01:10:04.256Z,98884.34
2018-07-30T01:10:35.364Z,98881.80
2018-07-30T01:11:06.496Z,98888.55
2018-07-30T01:11:37.624Z,98884.90
2018-07-30T01:12:08.750Z,98883.22
2018-07-30T01:12:39.859Z,98890.86
2018-07-30T01:13:11.103Z,98889.53
2018-07-30T01:13:42.405Z,98886.82
2018-07-30T01:14:13.584Z,98885.80
2018-07-30T01:14:44.769Z,98887.09
2018-07-30T01:15:15.948Z,98885.36
2018-07-30T01:15:47.129Z,98885.94
2018-07-30T01:16:18.369Z,98887.91
2018-07-30T01:16:49.556Z,98881.11
2018-07-30T01:17:20.676Z,98889.94
2018-07-30T01:17:51.853Z,98886.45
2018-07-30T01:18:22.980Z,98888.56
2018-07-30T01:18:54.256Z,98888.36
2018-07-30T01:19:25.497Z,98890.83
2018-07-30T01:19:56.630Z,98896.23
2018-07-30T01:20:27.753Z,98892.22
2018-07-30T01:20:58.960Z,98892.99
2018-07-30T01:21:30.138Z,98894.63
2018-07-30T01:22:01.345Z,98892.38
2018-07-30T01:22:32.557Z,98888.33
2018-07-30T01:23:03.720Z,98890.64
2018-07-30T01:23:34.896Z,98888.55
2018-07-30T01:24:06.022Z,98888.84
2018-07-30T01:24:37.201Z,98885.32
2018-07-30T01:25:08.329Z,98884.84
2018-07-30T01:25:39.450Z,98891.36
2018-07-30T01:26:10.620Z,98887.72
2018-07-30T01:26:41.813Z,98890.23
2018-07-30T01:27:13.055Z,98886.80
2018-07-30T01:27:44.256Z,98887.27
2018-07-30T01:28:15.472Z,98889.66
2018-07-30T01:28:46.607Z,98892.03
2018-07-30T01:29:17.724Z,98887.91
2018-07-30T01:29:48.843Z,98886.43
2018-07-30T01:30:20.026Z,98886.43
2018-07-30T01:30:51.202Z,98884.59
2018-07-30T01:31:22.320Z,98883.77
2018-07-30T01:31:53.497Z,98881.67
2018-07-30T01:32:24.712Z,98882.23
2018-07-30T01:32:55.839Z,98881.36
2018-07-30T01:33:27.017Z,98881.01
2018-07-30T01:33:58.221Z,98887.35
2018-07-30T01:34:29.340Z,98877.67
2018-07-30T01:35:00.495Z,98882.80
2018-07-30T01:35:31.668Z,98881.82
2018-07-30T01:36:02.793Z,98877.89
2018-07-30T01:36:33.968Z,98877.53
2018-07-30T01:37:05.102Z,98876.00
2018-07-30T01:37:36.316Z,98876.14
2018-07-30T01:38:07.544Z,98876.14
2018-07-30T01:38:38.667Z,98876.71
2018-07-30T01:39:09.804Z,98876.16
2018-07-30T01:39:40.925Z,98875.59
2018-07-30T01:40:12.106Z,98869.91
2018-07-30T01:40:43.301Z,98868.58
2018-07-30T01:41:14.468Z,98862.48
2018-07-30T01:41:45.596Z,98865.14
2018-07-30T01:42:16.827Z,98870.36
2018-07-30T01:42:47.989Z,98873.23
2018-07-30T01:43:19.109Z,98873.23
2018-07-30T01:43:50.268Z,98867.54
2018-07-30T01:44:21.489Z,98871.53
2018-07-30T01:44:52.660Z,98868.93
2018-07-30T01:45:23.787Z,98867.25
2018-07-30T01:45:54.905Z,98863.34
2018-07-30T01:46:26.082Z,98863.34
2018-07-30T01:46:57.204Z,98870.20
2018-07-30T01:47:28.420Z,98862.36
2018-07-30T01:47:59.591Z,98866.72
2018-07-30T01:48:30.717Z,98865.03
2018-07-30T01:49:01.951Z,98862.16
2018-07-30T01:49:33.134Z,98861.03
2018-07-30T01:50:04.260Z,98857.66
2018-07-30T01:50:35.380Z,98858.52
2018-07-30T01:51:06.561Z,98859.76
2018-07-30T01:51:37.745Z,98859.67
2018-07-30T01:52:08.913Z,98857.77
2018-07-30T01:52:40.070Z,98864.64
2018-07-30T01:53:11.188Z,98864.64
2018-07-30T01:53:42.304Z,98866.83
2018-07-30T01:54:13.478Z,98860.73
2018-07-30T01:54:44.603Z,98868.36
2018-07-30T01:55:15.732Z,98866.61
2018-07-30T01:55:46.913Z,98864.98
2018-07-30T01:56:18.089Z,98867.49
2018-07-30T01:56:49.218Z,98864.36
2018-07-30T01:57:20.389Z,98867.78
2018-07-30T01:57:51.545Z,98873.11
2018-07-30T01:58:22.659Z,98874.84
2018-07-30T01:58:53.829Z,98877.16
2018-07-30T01:59:25.045Z,98874.64
2018-07-30T01:59:56.213Z,98875.35
2018-07-30T02:00:27.329Z,98876.33
2018-07-30T02:00:58.447Z,98872.27
2018-07-30T02:01:29.685Z,98872.95
2018-07-30T02:02:00.812Z,98873.81
2018-07-30T02:02:31.988Z,98871.98
2018-07-30T02:03:03.211Z,98874.02
2018-07-30T02:03:34.342Z,98875.35
2018-07-30T02:04:05.522Z,98876.69
2018-07-30T02:04:36.749Z,98875.35
2018-07-30T02:05:07.889Z,98874.64
2018-07-30T02:05:38.995Z,98872.69
2018-07-30T02:06:10.107Z,98872.33
2018-07-30T02:06:41.259Z,98876.06
2018-07-30T02:07:12.376Z,98878.48
2018-07-30T02:07:43.491Z,98883.59
2018-07-30T02:08:14.919Z,98875.14
2018-07-30T02:08:46.040Z,98874.93
2018-07-30T02:09:17.249Z,98875.14
2018-07-30T02:09:48.443Z,98874.42
2018-07-30T02:10:19.556Z,98876.47
2018-07-30T02:10:50.684Z,98877.80
2018-07-30T02:11:21.797Z,98876.73
2018-07-30T02:11:52.911Z,98879.75
2018-07-30T02:12:24.080Z,98879.90
2018-07-30T02:12:55.256Z,98877.49
2018-07-30T02:13:26.423Z,98875.63
2018-07-30T02:13:57.596Z,98871.39
2018-07-30T02:14:28.828Z,98876.86
2018-07-30T02:15:00.060Z,98877.00
2018-07-30T02:15:31.194Z,98870.28
2018-07-30T02:16:02.366Z,98874.27
2018-07-30T02:16:33.532Z,98873.92
2018-07-30T02:17:04.721Z,98874.06
2018-07-30T02:17:35.932Z,98873.34
2018-07-30T02:18:07.054Z,98868.64
2018-07-30T02:18:38.171Z,98870.83
2018-07-30T02:19:09.359Z,98870.52
2018-07-30T02:19:40.527Z,98875.16
2018-07-30T02:20:11.738Z,98869.69
2018-07-30T02:20:42.920Z,98870.66
2018-07-30T02:21:14.093Z,98869.33
2018-07-30T02:21:45.252Z,98871.27
2018-07-30T02:22:16.408Z,98869.26
2018-07-30T02:22:47.573Z,98867.57
2018-07-30T02:23:18.692Z,98871.92
2018-07-30T02:23:49.913Z,98867.07
2018-07-30T02:24:21.321Z,98868.15
2018-07-30T02:24:52.496Z,98869.98
2018-07-30T02:25:23.660Z,98873.72
2018-07-30T02:25:54.808Z,98862.36
2018-07-30T02:26:25.920Z,98867.28
2018-07-30T02:26:57.089Z,98867.64
2018-07-30T02:27:28.257Z,98871.98
2018-07-30T02:27:59.383Z,98870.19
2018-07-30T02:28:30.513Z,98876.48
2018-07-30T02:29:01.690Z,98870.52
2018-07-30T02:29:32.845Z,98870.66
2018-07-30T02:30:03.988Z,98877.92
2018-07-30T02:30:35.139Z,98873.94
2018-07-30T02:31:06.344Z,98872.61
2018-07-30T02:31:37.462Z,98875.52
2018-07-30T02:32:08.567Z,98875.72
2018-07-30T02:32:40.296Z,98878.09
2018-07-30T02:33:11.461Z,98872.16
2018-07-30T02:33:42.697Z,98878.67
2018-07-30T02:34:13.800Z,98880.61
2018-07-30T02:34:44.931Z,98877.84
2018-07-30T02:35:16.091Z,98882.16
2018-07-30T02:35:47.267Z,98873.34
2018-07-30T02:36:18.415Z,98883.02
2018-07-30T02:36:49.532Z,98883.84
2018-07-30T02:37:20.647Z,98881.19
2018-07-30T02:37:51.778Z,98875.39
2018-07-30T02:38:22.994Z,98877.05
2018-07-30T02:38:54.173Z,98881.04
2018-07-30T02:39:25.295Z,98883.02
2018-07-30T02:39:56.473Z,98883.98
2018-07-30T02:40:27.735Z,98884.13
2018-07-30T02:40:58.927Z,98879.17
2018-07-30T02:41:30.044Z,98881.19
2018-07-30T02:42:01.220Z,98880.00
2018-07-30T02:42:32.389Z,98889.31
2018-07-30T02:43:03.574Z,98882.45
2018-07-30T02:43:34.924Z,98884.25
2018-07-30T02:44:06.052Z,98885.58
2018-07-30T02:44:37.251Z,98888.34
2018-07-30T02:45:08.367Z,98890.03
2018-07-30T02:45:39.589Z,98886.25
2018-07-30T02:46:10.702Z,98887.29
2018-07-30T02:46:41.885Z,98889.77
2018-07-30T02:47:13.059Z,98893.61
2018-07-30T02:47:44.237Z,98891.66
2018-07-30T02:48:15.462Z,98886.41
2018-07-30T02:48:46.580Z,98892.80
2018-07-30T02:49:17.823Z,98889.84
2018-07-30T02:49:49.016Z,98890.77
2018-07-30T02:50:20.127Z,98897.43
2018-07-30T02:50:51.348Z,98898.97
2018-07-30T02:51:22.523Z,98894.00
2018-07-30T02:51:53.664Z,98895.55
2018-07-30T02:52:24.775Z,98900.87
2018-07-30T02:52:55.950Z,98903.03
2018-07-30T02:53:27.124Z,98905.55
2018-07-30T02:53:58.240Z,98906.66
2018-07-30T02:54:29.378Z,98905.84
2018-07-30T02:55:00.491Z,98903.11
2018-07-30T02:55:31.604Z,98905.06
2018-07-30T02:56:02.812Z,98898.70
2018-07-30T02:56:33.985Z,98908.02
2018-07-30T02:57:05.106Z,98906.44
2018-07-30T02:57:36.360Z,98905.25
2018-07-30T02:58:07.537Z,98902.59
2018-07-30T02:58:38.784Z,98905.80
2018-07-30T02:59:09.915Z,98902.17
2018-07-30T02:59:41.037Z,98908.11
2018-07-30T03:00:12.152Z,98904.40
2018-07-30T03:00:43.320Z,98905.95
2018-07-30T03:01:14.580Z,98900.41
2018-07-30T03:01:45.696Z,98904.66
2018-07-30T03:02:16.872Z,98903.97
2018-07-30T03:02:48.037Z,98904.95
2018-07-30T03:03:19.208Z,98905.23
2018-07-30T03:03:50.325Z,98900.23
2018-07-30T03:04:21.494Z,98908.94
2018-07-30T03:04:52.673Z,98909.66
2018-07-30T03:05:23.794Z,98907.97
2018-07-30T03:05:54.960Z,98911.67
2018-07-30T03:06:26.130Z,98910.34
2018-07-30T03:06:57.249Z,98908.65
2018-07-30T03:07:28.364Z,98909.30
2018-07-30T03:07:59.536Z,98913.55
2018-07-30T03:08:30.648Z,98915.78
2018-07-30T03:09:01.772Z,98917.75
2018-07-30T03:09:33.019Z,98917.39
2018-07-30T03:10:04.189Z,98922.36
2018-07-30T03:10:35.315Z,98916.17
2018-07-30T03:11:06.485Z,98920.38
2018-07-30T03:11:37.716Z,98923.94
2018-07-30T03:12:08.825Z,98919.88
2018-07-30T03:12:40.014Z,98917.50
2018-07-30T03:13:11.192Z,98916.89
2018-07-30T03:13:42.308Z,98917.87
2018-07-30T03:14:13.425Z,98920.31
2018-07-30T03:14:44.533Z,98920.34
2018-07-30T03:15:15.647Z,98914.45
2018-07-30T03:15:46.871Z,98915.67
2018-07-30T03:16:18.109Z,98922.31
2018-07-30T03:16:49.320Z,98914.66
2018-07-30T03:17:20.497Z,98908.88
2018-07-30T03:17:51.636Z,98915.02
2018-07-30T03:18:22.764Z,98912.51
2018-07-30T03:18:54.029Z,98799.88
2018-07-30T03:19:25.211Z,98918.19
2018-07-30T03:19:56.338Z,98913.23
2018-07-30T03:20:27.565Z,98914.55
2018-07-30T03:20:58.692Z,98910.56
2018-07-30T03:21:29.864Z,98913.80
2018-07-30T03:22:01.026Z,98917.29
2018-07-30T03:22:32.138Z,98917.04
2018-07-30T03:23:03.303Z,98920.67
2018-07-30T03:23:34.412Z,98912.05
2018-07-30T03:24:05.641Z,98920.42
2018-07-30T03:24:36.882Z,98918.83
2018-07-30T03:25:08.064Z,98922.54
2018-07-30T03:25:39.199Z,98918.30
2018-07-30T03:26:10.372Z,98919.95
2018-07-30T03:26:41.544Z,98922.00
2018-07-30T03:27:12.673Z,98925.02
2018-07-30T03:27:43.841Z,98922.36
2018-07-30T03:28:15.000Z,98923.08
2018-07-30T03:28:46.235Z,98918.08
2018-07-30T03:29:17.324Z,98918.19
2018-07-30T03:29:48.496Z,98920.20
2018-07-30T03:30:19.611Z,98922.96
2018-07-30T03:30:50.801Z,98919.58
2018-07-30T03:31:21.983Z,98922.10
2018-07-30T03:31:53.153Z,98929.26
2018-07-30T03:32:24.386Z,98922.25
2018-07-30T03:32:55.507Z,98926.95
2018-07-30T03:33:26.733Z,98922.31
2018-07-30T03:33:57.906Z,98920.98
2018-07-30T03:34:29.034Z,98921.84
2018-07-30T03:35:00.197Z,98918.97
2018-07-30T03:35:31.331Z,98916.64
2018-07-30T03:36:02.451Z,98918.76
2018-07-30T03:36:33.628Z,98917.21
2018-07-30T03:37:04.794Z,98921.81
2018-07-30T03:37:35.911Z,98926.06
2018-07-30T03:38:07.022Z,98922.72
2018-07-30T03:38:38.278Z,98920.13
2018-07-30T03:39:09.402Z,98920.48
2018-07-30T03:39:40.564Z,98917.32
2018-07-30T03:40:11.801Z,98911.24
2018-07-30T03:40:42.974Z,98920.91
2018-07-30T03:41:14.100Z,98924.08
2018-07-30T03:41:45.268Z,98921.63
2018-07-30T03:42:16.448Z,98920.98
2018-07-30T03:42:47.581Z,98916.52
2018-07-30T03:43:18.766Z,98924.72
2018-07-30T03:43:50.035Z,98924.58
2018-07-30T03:44:21.204Z,98920.94
2018-07-30T03:44:52.380Z,98924.29
2018-07-30T03:45:23.561Z,98927.09
2018-07-30T03:45:54.667Z,98923.46
2018-07-30T03:46:25.813Z,98925.50
2018-07-30T03:46:56.924Z,98920.30
2018-07-30T03:47:28.035Z,98926.19
2018-07-30T03:47:59.309Z,98921.98
2018-07-30T03:48:30.405Z,98929.08
2018-07-30T03:49:01.581Z,98927.59
2018-07-30T03:49:32.748Z,98930.11
2018-07-30T03:50:03.925Z,98921.56
2018-07-30T03:50:35.043Z,98928.72
2018-07-30T03:51:06.216Z,98921.56
2018-07-30T03:51:37.404Z,98919.66
2018-07-30T03:52:08.630Z,98921.48
2018-07-30T03:52:39.747Z,98920.30
2018-07-30T03:53:10.887Z,98922.82
2018-07-30T03:53:42.105Z,98918.68
2018-07-30T03:54:13.231Z,98920.58
2018-07-30T03:54:44.364Z,98916.95
2018-07-30T03:55:15.479Z,98919.32
2018-07-30T03:55:46.648Z,98918.34
2018-07-30T03:56:17.775Z,98921.52
2018-07-30T03:56:48.880Z,98921.98
2018-07-30T03:57:20.064Z,98924.39
2018-07-30T03:57:51.277Z,98919.89
2018-07-30T03:58:22.412Z,98920.67
2018-07-30T03:58:53.626Z,98922.22
2018-07-30T03:59:24.751Z,98924.48
2018-07-30T03:59:56.006Z,98921.20
2018-07-30T04:00:27.215Z,98923.21
2018-07-30T04:00:58.284Z,98919.86
2018-07-30T04:01:29.395Z,98923.86
2018-07-30T04:02:01.124Z,98921.88
2018-07-30T04:02:32.245Z,98917.41
2018-07-30T04:03:03.492Z,98922.80
2018-07-30T04:03:34.673Z,98921.83
2018-07-30T04:04:05.887Z,98928.34
2018-07-30T04:04:37.052Z,98925.42
2018-07-30T04:05:08.176Z,98923.73
2018-07-30T04:05:39.289Z,98915.38
2018-07-30T04:06:10.425Z,98914.05
2018-07-30T04:06:41.660Z,98916.97
2018-07-30T04:07:12.868Z,98918.30
2018-07-30T04:07:43.983Z,98916.00
2018-07-30T04:08:15.094Z,98917.33
2018-07-30T04:08:46.272Z,98921.06
2018-07-30T04:09:17.396Z,98920.77
2018-07-30T04:09:48.577Z,98915.95
2018-07-30T04:10:19.707Z,98917.64
2018-07-30T04:10:50.882Z,98913.28
2018-07-30T04:11:22.006Z,98915.90
2018-07-30T04:11:53.117Z,98920.31
2018-07-30T04:12:24.219Z,98916.05
2018-07-30T04:12:55.460Z,98910.58
2018-07-30T04:13:26.589Z,98918.57
2018-07-30T04:13:57.743Z,98917.59
2018-07-30T04:14:28.923Z,98921.18
2018-07-30T04:15:00.097Z,98917.45
2018-07-30T04:15:31.355Z,98916.47
2018-07-30T04:16:02.642Z,98918.16
2018-07-30T04:16:33.763Z,98922.77
2018-07-30T04:17:04.940Z,98921.18
2018-07-30T04:17:36.053Z,98917.03
2018-07-30T04:18:07.417Z,98920.88
2018-07-30T04:18:38.532Z,98917.59
2018-07-30T04:19:09.701Z,98914.07
2018-07-30T04:19:40.828Z,98917.75
2018-07-30T04:20:11.944Z,98918.22
2018-07-30T04:20:43.095Z,98917.09
2018-07-30T04:21:14.212Z,98918.93
2018-07-30T04:21:45.386Z,98892.43
2018-07-30T04:22:16.536Z,98920.20
2018-07-30T04:22:47.697Z,98925.53
2018-07-30T04:23:18.864Z,98916.89
2018-07-30T04:23:50.032Z,98919.28
2018-07-30T04:24:21.191Z,98919.14
2018-07-30T04:24:52.360Z,98920.32
2018-07-30T04:25:23.537Z,98920.94
2018-07-30T04:25:55.036Z,98919.14
2018-07-30T04:26:28.500Z,98918.58
2018-07-30T04:27:05.451Z,98922.78
2018-07-30T04:27:36.620Z,98918.42
2018-07-30T04:28:07.734Z,98924.26
2018-07-30T04:28:38.854Z,98919.55
2018-07-30T04:29:10.144Z,98918.87
2018-07-30T04:29:41.256Z,98921.95
2018-07-30T04:30:12.426Z,98924.67
2018-07-30T04:30:43.601Z,98922.72
2018-07-30T04:31:14.752Z,98919.91
2018-07-30T04:31:45.916Z,98927.70
2018-07-30T04:32:17.098Z,98921.92
2018-07-30T04:32:48.266Z,98925.80
2018-07-30T04:33:19.455Z,98921.86
2018-07-30T04:33:50.571Z,98929.02
2018-07-30T04:34:21.740Z,98924.17
2018-07-30T04:34:52.865Z,98929.34
2018-07-30T04:35:23.985Z,98926.77
2018-07-30T04:35:55.159Z,98928.25
2018-07-30T04:36:26.325Z,98928.11
2018-07-30T04:36:57.456Z,98925.30
2018-07-30T04:37:28.896Z,98929.50
2018-07-30T04:38:00.010Z,98925.50
2018-07-30T04:38:31.132Z,98929.50
2018-07-30T04:39:02.248Z,98932.16
2018-07-30T04:39:33.435Z,98934.67
2018-07-30T04:40:04.551Z,98932.16
2018-07-30T04:40:35.671Z,98933.14
2018-07-30T04:41:06.901Z,98933.70
2018-07-30T04:41:38.033Z,98932.88
2018-07-30T04:42:09.156Z,98932.05
2018-07-30T04:42:40.355Z,98933.02
2018-07-30T04:43:11.471Z,98934.00
2018-07-30T04:43:42.579Z,98934.00
2018-07-30T04:44:13.756Z,98934.00
2018-07-30T04:44:44.909Z,98935.48
2018-07-30T04:45:16.176Z,98939.47
2018-07-30T04:45:47.300Z,98931.33
2018-07-30T04:46:18.480Z,98936.87
2018-07-30T04:46:49.652Z,98939.73
2018-07-30T04:47:20.878Z,98940.59
2018-07-30T04:47:52.049Z,98944.44
2018-07-30T04:48:23.171Z,98940.80
2018-07-30T04:48:54.280Z,98939.73
2018-07-30T04:49:25.518Z,98938.14
2018-07-30T04:49:56.721Z,98940.66
2018-07-30T04:50:27.940Z,98943.27
2018-07-30T04:50:59.056Z,98940.59
2018-07-30T04:51:30.287Z,98945.16
2018-07-30T04:52:01.413Z,98946.70
2018-07-30T04:52:32.630Z,98943.03
2018-07-30T04:53:03.759Z,98947.88
2018-07-30T04:53:34.876Z,98940.16
2018-07-30T04:54:05.992Z,98946.05
2018-07-30T04:54:37.174Z,98947.38
2018-07-30T04:55:08.288Z,98945.28
2018-07-30T04:55:39.493Z,98945.84
2018-07-30T04:56:10.772Z,98940.87
2018-07-30T04:56:41.947Z,98949.42
2018-07-30T04:57:13.072Z,98946.46
2018-07-30T04:57:44.268Z,98946.97
2018-07-30T04:58:15.398Z,98946.31
2018-07-30T04:58:46.616Z,98947.64
2018-07-30T04:59:17.771Z,98945.48
2018-07-30T04:59:48.990Z,98947.64
2018-07-30T05:00:20.110Z,98949.98
2018-07-30T05:00:51.293Z,98945.69
2018-07-30T05:01:22.416Z,98947.44
2018-07-30T05:01:53.588Z,98945.22
2018-07-30T05:02:24.708Z,98949.95
2018-07-30T05:02:55.918Z,98953.33
2018-07-30T05:03:27.104Z,98949.18
2018-07-30T05:03:58.345Z,98951.58
2018-07-30T05:04:29.517Z,98949.63
2018-07-30T05:05:00.753Z,98951.58
2018-07-30T05:05:31.875Z,98950.39
2018-07-30T05:06:03.088Z,98947.73
2018-07-30T05:06:34.201Z,98952.91
2018-07-30T05:07:05.368Z,98944.41
2018-07-30T05:07:36.553Z,98955.27
2018-07-30T05:08:07.823Z,98950.59
2018-07-30T05:08:38.958Z,98953.32
2018-07-30T05:09:10.130Z,98949.05
2018-07-30T05:09:41.315Z,98948.27
2018-07-30T05:10:12.478Z,98947.03
2018-07-30T05:10:43.665Z,98948.77
2018-07-30T05:11:14.870Z,98952.39
2018-07-30T05:11:45.996Z,98954.09
2018-07-30T05:12:17.116Z,98951.97
2018-07-30T05:12:48.238Z,98951.04
2018-07-30T05:13:19.385Z,98942.26
2018-07-30T05:13:50.593Z,98944.34
2018-07-30T05:14:21.773Z,98939.05
2018-07-30T05:14:52.962Z,98943.30
2018-07-30T05:15:24.075Z,98947.90
2018-07-30T05:15:55.193Z,98950.34
2018-07-30T05:16:26.568Z,98944.95
2018-07-30T05:16:57.745Z,98948.48
2018-07-30T05:17:28.876Z,98947.58
2018-07-30T05:18:00.001Z,98945.23
2018-07-30T05:18:31.201Z,98945.10
2018-07-30T05:19:02.518Z,98939.61
2018-07-30T05:19:33.747Z,98948.84
2018-07-30T05:20:04.983Z,98944.16
2018-07-30T05:20:36.167Z,98944.74
2018-07-30T05:21:07.425Z,98942.27
2018-07-30T05:21:38.595Z,98940.34
2018-07-30T05:22:09.932Z,98940.91
2018-07-30T05:22:41.067Z,98940.63
2018-07-30T05:23:12.220Z,98940.95
2018-07-30T05:23:43.351Z,98942.35
2018-07-30T05:24:14.499Z,98938.03
2018-07-30T05:24:45.639Z,98938.22
2018-07-30T05:25:16.812Z,98938.09
2018-07-30T05:25:47.950Z,98936.05
2018-07-30T05:26:19.189Z,98939.69
2018-07-30T05:26:50.334Z,98934.72
2018-07-30T05:27:21.572Z,98935.77
2018-07-30T05:27:52.810Z,98939.45
2018-07-30T05:28:24.180Z,98934.68
2018-07-30T05:28:55.461Z,98938.59
2018-07-30T05:29:26.651Z,98932.09
2018-07-30T05:29:57.768Z,98936.83
2018-07-30T05:30:29.011Z,98938.83
2018-07-30T05:31:00.159Z,98937.81
2018-07-30T05:31:31.404Z,98935.66
2018-07-30T05:32:02.568Z,98936.99
2018-07-30T05:32:33.746Z,98939.53
2018-07-30T05:33:04.972Z,98933.00
2018-07-30T05:33:36.107Z,98940.89
2018-07-30T05:34:07.517Z,98937.73
2018-07-30T05:34:38.757Z,98943.11
2018-07-30T05:35:09.949Z,98941.95
2018-07-30T05:35:41.102Z,98937.66
2018-07-30T05:36:12.308Z,98942.39
2018-07-30T05:36:43.586Z,98937.41
2018-07-30T05:37:14.825Z,98933.96
2018-07-30T05:37:46.030Z,98935.66
2018-07-30T05:38:17.195Z,98940.87
2018-07-30T05:38:48.319Z,98940.52
2018-07-30T05:39:19.499Z,98934.98
2018-07-30T05:39:50.708Z,98938.50
2018-07-30T05:40:21.955Z,98936.84
2018-07-30T05:40:53.145Z,98938.89
2018-07-30T05:41:24.284Z,98934.25
2018-07-30T05:41:55.508Z,98936.28
2018-07-30T05:42:26.709Z,98938.62
2018-07-30T05:42:57.828Z,98936.64
2018-07-30T05:43:29.066Z,98936.66
2018-07-30T05:44:00.246Z,98941.67
2018-07-30T05:44:31.451Z,98941.84
2018-07-30T05:45:02.708Z,98940.16
2018-07-30T05:45:33.884Z,98939.01
2018-07-30T05:46:05.043Z,98930.32
2018-07-30T05:46:36.164Z,98944.51
2018-07-30T05:47:07.404Z,98938.64
2018-07-30T05:47:38.604Z,98941.69
2018-07-30T05:48:09.791Z,98941.39
2018-07-30T05:48:41.001Z,98941.39
2018-07-30T05:49:12.224Z,98939.06
2018-07-30T05:49:43.405Z,98942.09
2018-07-30T05:50:14.636Z,98940.42
2018-07-30T05:50:45.760Z,98945.48
2018-07-30T05:51:17.035Z,98938.16
2018-07-30T05:51:48.289Z,98943.17
2018-07-30T05:52:19.568Z,98938.85
2018-07-30T05:52:50.788Z,98940.41
2018-07-30T05:53:21.950Z,98945.94
2018-07-30T05:53:53.210Z,98942.92
2018-07-30T05:54:24.371Z,98944.61
2018-07-30T05:54:55.515Z,98946.63
2018-07-30T05:55:26.694Z,98945.30
2018-07-30T05:55:57.844Z,98941.80
2018-07-30T05:56:28.958Z,98948.34
2018-07-30T05:57:00.138Z,98945.53
2018-07-30T05:57:31.374Z,98948.69
2018-07-30T05:58:02.521Z,98941.86
2018-07-30T05:58:33.721Z,98946.05
2018-07-30T05:59:04.847Z,98947.73
2018-07-30T05:59:36.063Z,98948.39
2018-07-30T06:00:07.385Z,98945.06
2018-07-30T06:00:38.888Z,98945.07
2018-07-30T06:01:10.107Z,98949.09
2018-07-30T06:01:45.647Z,98945.88
2018-07-30T06:02:16.791Z,98948.05
2018-07-30T06:02:47.983Z,98947.56
2018-07-30T06:03:19.220Z,98944.91
2018-07-30T06:03:50.346Z,98947.97
2018-07-30T06:04:21.605Z,98948.66
2018-07-30T06:04:52.798Z,98946.88
2018-07-30T06:05:24.066Z,98944.73
2018-07-30T06:05:55.249Z,98938.05
2018-07-30T06:06:26.471Z,98951.66